Washington, CA (95986)

5:47 AM PST on March 06, 2015 (GMT -0800)
RAWS WHITE CLOUD CA US | Change Station
CLOSE
Current Station
Personal Weather Station
Location: Washington, CA
Elevation: 4319 ft
Nearby Weather Stations

Elev 4319 ft 39.32 °N, 120.84 °W | Updated 1 hour ago

Clear
Clear
50 °F
Feels Like 50 °F
N
3
Wind Variable Wind from NE
Gusts 6.0 mph

Today
High -- | Low -- °F
--% Chance of Precip.
Yesterday
High -- | Low -- °F
Precip. -- in
6:28 AM 6:00 PM
Waxing Gibbous, 99% visible
Pressure 30.24 in
Visibility 10.0 miles
Clouds Clear
Dew Point 15 °F
Humidity 24%
Rainfall in
Snow Depth Not available.
UV 0 out of 12
Pollen 5.60 out of 12
Air Quality Not available.
Flu Activity Not available.
METAR KBLU 061252Z AUTO 05003KT 10SM CLR 09/M14 A3035 RMK AO2 SLP239 T00891139

More Conditions Fewer Conditions

Pressure 30.24 in
Visibility 10.0 miles
Clouds Clear
Dew Point 15 °F
Humidity 24%
Rainfall in
Snow Depth Not available.
UV 0 out of 12
Pollen 5.60 out of 12
Air Quality Not available.
Flu Activity Not available.
METAR KBLU 061252Z AUTO 05003KT 10SM CLR 09/M14 A3035 RMK AO2 SLP239 T00891139

More Conditions Fewer Conditions

10-Day Weather Forecast

Almanac

Astronomy

Mar. 06, 2015 Rise Set
Actual Time
Civil Twilight
Nautical Twilight
Astronomical Twilight
Moon
Length of Visible Light
Length of Day
Tomorrow will be .
, % of the Moon is Illuminated

Today's Extremes

State Highs State Lows

Community

WunderPhotos

Upload Photos

1,803,266 photos uploaded!

WunderBlogs® & News

Nearby

Air Quality

  Air Quality AQ Index Pollutant
Not available.

Snow Depth

Station Depth Elevation

Earthquake Activity

City Distance Mag. Time & Date
Minimum magnitude displayed is 2.5.

Coastal Water Temperatures

Place Temperature

Nearby Weather Stations